Time;durP1;ratioP1;P1;durP2;ratioP2;P2;SDS_P1;SDS_P2;PMS_P1;PMS_P2;Temp;Humidity;BMP_temperature;BMP_pressure;BME280_temperature;BME280_humidity;BME280_pressure;Samples;Min_cycle;Max_cycle;Signal;HPM_P1;HPM_P2
2022/12/28 00:00:06;;;;;;;;;;;6.70;99.90;;;;;;5012466;28;19905;-83
2022/12/28 00:02:31;;;;;;;;;;;6.70;99.90;;;;;;5013365;28;20263;-81
2022/12/28 00:04:57;;;;;;;;;;;6.70;99.90;;;;;;5013589;28;19905;-83
2022/12/28 00:07:22;;;;;;;;;;;6.60;99.90;;;;;;5013396;28;19999;-82
2022/12/28 00:09:48;;;;;;;;;;;6.70;99.90;;;;;;5012399;28;19909;-83
2022/12/28 00:12:13;;;;;;;;;;;6.70;99.90;;;;;;5014201;28;20380;-83
2022/12/28 00:14:39;;;;;;;;;;;6.70;99.90;;;;;;5013947;28;19916;-83
2022/12/28 00:17:04;;;;;;;;;;;6.50;99.90;;;;;;5012678;28;20003;-83
2022/12/28 00:19:30;;;;;;;;;;;6.70;99.90;;;;;;5028580;28;19995;-83
2022/12/28 00:21:55;;;;;;;;;;;6.70;99.90;;;;;;4999183;28;19916;-83
2022/12/28 00:24:22;;;;;;;;;;;6.70;99.90;;;;;;5018199;28;19905;-82
2022/12/28 00:26:48;;;;;;;;;;;6.70;99.90;;;;;;5020536;28;19905;-82
2022/12/28 00:29:14;;;;;;;;;;;6.70;99.90;;;;;;5016191;28;19932;-82
2022/12/28 00:31:39;;;;;;;;;;;6.60;99.90;;;;;;5016453;28;19905;-83
2022/12/28 00:34:05;;;;;;;;;;;6.70;99.90;;;;;;5021521;28;19918;-83
2022/12/28 00:36:31;;;;;;;;;;;6.70;99.90;;;;;;5021516;28;19906;-83
2022/12/28 00:38:56;;;;;;;;;;;6.70;99.90;;;;;;5017559;28;20460;-84
2022/12/28 00:41:22;;;;;;;;;;;6.70;99.90;;;;;;5015804;28;20000;-83
2022/12/28 00:43:49;;;;;;;;;;;6.70;99.90;;;;;;5015554;28;20374;-83
2022/12/28 00:46:16;;;;;;;;;;;6.70;99.90;;;;;;5031645;28;19921;-83
2022/12/28 00:48:42;;;;;;;;;;;6.80;99.90;;;;;;5016455;28;20353;-83
2022/12/28 00:51:12;;;;;;;;;;;6.80;99.90;;;;;;4999416;28;19945;-83
2022/12/28 00:53:38;;;;;;;;;;;6.80;99.90;;;;;;5015276;28;20008;-83
2022/12/28 00:56:07;;;;;;;;;;;6.80;99.90;;;;;;5031763;28;19964;-82
2022/12/28 00:58:33;;;;;;;;;;;6.80;99.90;;;;;;5030290;28;19953;-83
2022/12/28 01:00:59;;;;;;;;;;;6.80;99.90;;;;;;5033631;28;20334;-82
2022/12/28 01:03:24;;;;;;;;;;;6.90;99.90;;;;;;5016397;28;19917;-82
2022/12/28 01:05:50;;;;;;;;;;;6.90;99.90;;;;;;5035347;28;19958;-83
2022/12/28 01:08:15;;;;;;;;;;;6.90;99.90;;;;;;5051135;28;19941;-83
2022/12/28 01:10:41;;;;;;;;;;;6.90;99.90;;;;;;5034371;28;19940;-82
2022/12/28 01:13:06;;;;;;;;;;;7.00;99.90;;;;;;5034167;28;20399;-83
2022/12/28 01:15:32;;;;;;;;;;;6.90;99.90;;;;;;5051221;28;19909;-83
2022/12/28 01:17:57;;;;;;;;;;;7.00;99.90;;;;;;5050951;28;19920;-82
2022/12/28 01:20:23;;;;;;;;;;;7.00;99.90;;;;;;5034381;28;19915;-83
2022/12/28 01:22:48;;;;;;;;;;;7.00;99.90;;;;;;5017787;28;20000;-83
2022/12/28 01:25:14;;;;;;;;;;;7.00;99.90;;;;;;5035384;28;20272;-83
2022/12/28 01:27:40;;;;;;;;;;;7.10;99.90;;;;;;5050755;28;19913;-82
2022/12/28 01:30:05;;;;;;;;;;;7.10;99.90;;;;;;5034278;28;19909;-82
2022/12/28 01:32:31;;;;;;;;;;;7.10;99.90;;;;;;5017639;28;20825;-83
2022/12/28 01:34:56;;;;;;;;;;;7.10;99.90;;;;;;5050962;28;19995;-83
2022/12/28 01:37:22;;;;;;;;;;;7.10;99.90;;;;;;5017701;28;19943;-82
2022/12/28 01:39:47;;;;;;;;;;;7.20;99.90;;;;;;5034906;28;19917;-83
2022/12/28 01:42:17;;;;;;;;;;;7.20;99.90;;;;;;5017444;28;19909;-82
2022/12/28 01:44:49;;;;;;;;;;;7.20;99.90;;;;;;5034219;28;19909;-83
2022/12/28 01:47:27;;;;;;;;;;;7.20;99.90;;;;;;5033790;28;19917;-82
2022/12/28 01:50:04;;;;;;;;;;;7.20;99.90;;;;;;5035154;28;19905;-83
2022/12/28 01:52:37;;;;;;;;;;;7.20;99.90;;;;;;5035001;28;19909;-82
2022/12/28 01:55:06;;;;;;;;;;;7.30;99.90;;;;;;5050275;28;19948;-83
2022/12/28 01:57:34;;;;;;;;;;;7.30;99.90;;;;;;5033725;28;19931;-82
2022/12/28 02:00:02;;;;;;;;;;;7.30;99.90;;;;;;5033237;28;19913;-82
2022/12/28 02:02:28;;;;;;;;;;;7.40;99.90;;;;;;5033576;28;19979;-83
2022/12/28 02:04:54;;;;;;;;;;;7.40;99.90;;;;;;5033585;28;19951;-83
2022/12/28 02:07:25;;;;;;;;;;;7.40;99.90;;;;;;5033759;28;19943;-84
2022/12/28 02:09:51;;;;;;;;;;;7.50;99.90;;;;;;5034709;28;19905;-83
2022/12/28 02:12:17;;;;;;;;;;;7.50;99.90;;;;;;5033453;28;19947;-84
2022/12/28 02:14:43;;;;;;;;;;;7.50;99.90;;;;;;5033374;28;19905;-81
2022/12/28 02:17:09;;;;;;;;;;;7.50;99.90;;;;;;5033144;28;19905;-81
2022/12/28 02:19:45;;;;;;;;;;;7.50;99.90;;;;;;5016557;28;19917;-81
2022/12/28 02:22:29;;;;;;;;;;;7.50;99.90;;;;;;5033193;28;19948;-82
2022/12/28 02:25:13;;;;;;;;;;;7.50;99.90;;;;;;5033131;28;19909;-82
2022/12/28 02:27:41;;;;;;;;;;;7.50;99.90;;;;;;5033925;28;19939;-81
2022/12/28 02:30:08;;;;;;;;;;;7.60;99.90;;;;;;5033131;28;19912;-83
2022/12/28 02:32:39;;;;;;;;;;;7.60;99.90;;;;;;5034535;28;19912;-82
2022/12/28 02:35:11;;;;;;;;;;;7.50;99.90;;;;;;5033149;28;19916;-82
2022/12/28 02:37:47;;;;;;;;;;;7.50;99.90;;;;;;5032908;28;19951;-82
2022/12/28 02:40:15;;;;;;;;;;;7.60;99.90;;;;;;5032932;28;20446;-83
2022/12/28 02:42:41;;;;;;;;;;;7.60;99.90;;;;;;5032782;28;20269;-83
2022/12/28 02:50:43;;;;;;;;;;;7.60;99.90;;;;;;5034149;28;19912;-83
2022/12/28 02:53:20;;;;;;;;;;;7.60;99.90;;;;;;5032582;28;19951;-83
2022/12/28 02:58:49;;;;;;;;;;;7.60;99.90;;;;;;5035122;28;19920;-83
2022/12/28 03:01:21;;;;;;;;;;;7.50;99.90;;;;;;5032681;28;19912;-81
2022/12/28 03:04:02;;;;;;;;;;;7.50;99.90;;;;;;5032766;28;19905;-81
2022/12/28 03:09:17;;;;;;;;;;;7.40;99.90;;;;;;5033715;28;20308;-84
2022/12/28 03:11:49;;;;;;;;;;;7.40;99.90;;;;;;5032876;28;19905;-81
2022/12/28 03:14:27;;;;;;;;;;;7.30;99.90;;;;;;5032600;28;20269;-81
2022/12/28 03:33:31;;;;;;;;;;;7.20;99.90;;;;;;5034261;28;19959;-82
2022/12/28 03:36:01;;;;;;;;;;;7.20;99.90;;;;;;5032248;28;19959;-82
2022/12/28 03:38:45;;;;;;;;;;;7.30;99.90;;;;;;5031960;28;19920;-81
2022/12/28 03:41:18;;;;;;;;;;;7.20;99.90;;;;;;5033816;28;19951;-82
2022/12/28 03:43:52;;;;;;;;;;;7.20;99.90;;;;;;5032531;28;19909;-82
2022/12/28 03:46:21;;;;;;;;;;;7.20;99.90;;;;;;5032342;28;19960;-82
2022/12/28 03:48:47;;;;;;;;;;;7.30;99.90;;;;;;5032261;28;19911;-82
2022/12/28 03:51:14;;;;;;;;;;;7.20;99.90;;;;;;5032030;28;20352;-82
2022/12/28 03:53:41;;;;;;;;;;;7.20;99.90;;;;;;5033601;28;19944;-81
2022/12/28 03:56:11;;;;;;;;;;;7.30;99.90;;;;;;5035829;28;20352;-81
2022/12/28 03:58:36;;;;;;;;;;;7.30;99.90;;;;;;5037217;28;19913;-81
2022/12/28 04:01:02;;;;;;;;;;;7.40;99.90;;;;;;5019498;28;20273;-81
2022/12/28 04:03:28;;;;;;;;;;;7.40;99.90;;;;;;5036992;28;19947;-80
2022/12/28 04:05:54;;;;;;;;;;;7.40;99.90;;;;;;5036137;28;20039;-80
2022/12/28 04:08:19;;;;;;;;;;;7.40;99.90;;;;;;5019447;28;20254;-81
2022/12/28 04:10:44;;;;;;;;;;;7.40;99.90;;;;;;5035837;28;19979;-81
2022/12/28 04:13:10;;;;;;;;;;;7.40;99.90;;;;;;5036739;28;19936;-81
2022/12/28 04:15:36;;;;;;;;;;;7.50;99.90;;;;;;5035597;28;19915;-80
2022/12/28 04:18:01;;;;;;;;;;;7.50;99.90;;;;;;5036711;28;19996;-80
2022/12/28 04:20:27;;;;;;;;;;;7.50;99.90;;;;;;5035847;28;19905;-81
2022/12/28 04:22:52;;;;;;;;;;;7.50;99.90;;;;;;5036543;28;20511;-82
2022/12/28 04:25:18;;;;;;;;;;;7.60;99.90;;;;;;5052407;28;19905;-81
2022/12/28 04:27:43;;;;;;;;;;;7.50;99.90;;;;;;5038115;28;19904;-81
2022/12/28 04:30:09;;;;;;;;;;;7.60;99.90;;;;;;5037793;28;19905;-82
2022/12/28 04:32:34;;;;;;;;;;;7.60;99.90;;;;;;5036879;28;20327;-82
2022/12/28 04:35:00;;;;;;;;;;;7.60;99.90;;;;;;5052564;28;20361;-82
2022/12/28 04:37:25;;;;;;;;;;;7.60;99.90;;;;;;5020469;28;19909;-82
2022/12/28 04:39:51;;;;;;;;;;;7.60;99.90;;;;;;5038578;28;19913;-82
2022/12/28 04:42:17;;;;;;;;;;;7.70;99.90;;;;;;5035804;28;19909;-81
2022/12/28 04:44:42;;;;;;;;;;;7.70;99.90;;;;;;5035473;28;19916;-81
2022/12/28 04:47:08;;;;;;;;;;;7.70;99.90;;;;;;5035116;28;19917;-81
2022/12/28 04:49:33;;;;;;;;;;;7.70;99.90;;;;;;5035305;28;19924;-81
2022/12/28 04:51:58;;;;;;;;;;;7.80;99.90;;;;;;5018530;28;19909;-81
2022/12/28 04:54:24;;;;;;;;;;;7.70;99.90;;;;;;5018570;28;20424;-81
2022/12/28 04:56:49;;;;;;;;;;;7.70;99.90;;;;;;5051818;28;19905;-82
2022/12/28 04:59:15;;;;;;;;;;;7.80;99.90;;;;;;5034129;28;19924;-81
2022/12/28 05:01:40;;;;;;;;;;;7.80;99.90;;;;;;4997233;28;20289;-80
2022/12/28 05:04:06;;;;;;;;;;;7.80;99.90;;;;;;5013958;28;20373;-83
2022/12/28 05:06:31;;;;;;;;;;;7.80;99.90;;;;;;4996713;28;19909;-83
2022/12/28 05:08:57;;;;;;;;;;;7.80;99.90;;;;;;5014578;28;20366;-83
2022/12/28 05:11:24;;;;;;;;;;;7.90;99.90;;;;;;5016275;28;19905;-83
2022/12/28 05:13:50;;;;;;;;;;;7.90;99.90;;;;;;5017098;28;20619;-82
2022/12/28 05:16:16;;;;;;;;;;;7.90;99.90;;;;;;5015117;28;19905;-82
2022/12/28 05:18:43;;;;;;;;;;;7.90;99.90;;;;;;5014516;28;19917;-82
2022/12/28 05:21:10;;;;;;;;;;;7.90;99.90;;;;;;5016138;28;19906;-82
2022/12/28 05:23:36;;;;;;;;;;;7.90;99.90;;;;;;5014704;28;20277;-83
2022/12/28 05:26:03;;;;;;;;;;;7.90;99.90;;;;;;5015813;28;19905;-82
2022/12/28 05:28:29;;;;;;;;;;;8.00;99.90;;;;;;5015782;28;19912;-82
2022/12/28 05:30:58;;;;;;;;;;;8.00;99.90;;;;;;5014196;28;20015;-82
2022/12/28 05:33:24;;;;;;;;;;;8.00;99.90;;;;;;5015848;28;19920;-82
2022/12/28 05:35:49;;;;;;;;;;;8.00;99.90;;;;;;5014416;28;20400;-82
2022/12/28 05:38:14;;;;;;;;;;;8.00;99.90;;;;;;5014187;28;19909;-82
2022/12/28 05:40:40;;;;;;;;;;;8.00;99.90;;;;;;5015735;28;20294;-81
2022/12/28 05:43:05;;;;;;;;;;;8.10;99.90;;;;;;5030792;28;19905;-82
2022/12/28 05:45:31;;;;;;;;;;;8.10;99.90;;;;;;5017392;28;19968;-82
2022/12/28 05:47:56;;;;;;;;;;;8.10;99.90;;;;;;5024548;28;19905;-82
2022/12/28 05:50:22;;;;;;;;;;;8.10;99.90;;;;;;5020030;28;19909;-81
2022/12/28 05:52:47;;;;;;;;;;;8.10;99.90;;;;;;5033366;28;20257;-80
2022/12/28 05:55:13;;;;;;;;;;;8.20;99.90;;;;;;5039785;28;20329;-81
2022/12/28 05:57:38;;;;;;;;;;;8.20;99.90;;;;;;5012180;28;19996;-81
2022/12/28 06:00:04;;;;;;;;;;;8.20;99.90;;;;;;5012129;28;19926;-82
2022/12/28 06:02:30;;;;;;;;;;;8.20;99.90;;;;;;5013757;28;19905;-81
2022/12/28 06:04:55;;;;;;;;;;;8.20;99.90;;;;;;5014983;28;19906;-82
2022/12/28 06:07:21;;;;;;;;;;;8.30;99.90;;;;;;4997538;28;20361;-81
2022/12/28 06:09:46;;;;;;;;;;;8.30;99.90;;;;;;5015397;28;19999;-82
2022/12/28 06:12:12;;;;;;;;;;;8.20;99.90;;;;;;5013737;28;19913;-82
2022/12/28 06:14:37;;;;;;;;;;;8.40;99.90;;;;;;5013641;28;19936;-82
2022/12/28 06:17:03;;;;;;;;;;;8.30;99.90;;;;;;5014762;28;19912;-81
2022/12/28 06:19:29;;;;;;;;;;;8.30;99.90;;;;;;5014009;28;19939;-81
2022/12/28 06:21:54;;;;;;;;;;;8.30;99.90;;;;;;5014923;28;19932;-81
2022/12/28 06:24:20;;;;;;;;;;;8.40;99.90;;;;;;5014742;28;19909;-81
2022/12/28 06:26:45;;;;;;;;;;;8.40;99.90;;;;;;5014715;28;19905;-82
2022/12/28 06:29:11;;;;;;;;;;;8.40;99.90;;;;;;5013226;28;19905;-81
2022/12/28 06:31:38;;;;;;;;;;;8.40;99.90;;;;;;5014710;28;19910;-81
2022/12/28 06:34:04;;;;;;;;;;;8.40;99.90;;;;;;5014770;28;19913;-81
2022/12/28 06:36:31;;;;;;;;;;;8.40;99.90;;;;;;5029813;28;19910;-80
2022/12/28 06:38:57;;;;;;;;;;;8.40;99.90;;;;;;5013024;28;19914;-81
2022/12/28 06:41:24;;;;;;;;;;;8.40;99.90;;;;;;5014575;28;19905;-81
2022/12/28 06:43:49;;;;;;;;;;;8.50;99.90;;;;;;5014315;28;19917;-81
2022/12/28 06:46:16;;;;;;;;;;;8.50;99.90;;;;;;5013157;28;19921;-81
2022/12/28 06:48:42;;;;;;;;;;;8.50;99.90;;;;;;4996894;28;19909;-81
2022/12/28 06:51:14;;;;;;;;;;;8.50;99.90;;;;;;4996529;28;19915;-80
2022/12/28 06:53:40;;;;;;;;;;;8.50;99.90;;;;;;4996695;28;19979;-81
2022/12/28 06:56:07;;;;;;;;;;;8.50;99.90;;;;;;5013028;28;20346;-81
2022/12/28 06:58:32;;;;;;;;;;;8.60;99.90;;;;;;5012799;28;20012;-81
2022/12/28 07:01:24;;;;;;;;;;;8.60;99.90;;;;;;5014287;28;19955;-81
2022/12/28 07:03:51;;;;;;;;;;;8.60;99.90;;;;;;5013273;28;20000;-83
2022/12/28 07:06:17;;;;;;;;;;;8.60;99.90;;;;;;5012795;28;19928;-82
2022/12/28 07:08:43;;;;;;;;;;;8.70;99.90;;;;;;5014001;28;19963;-81
2022/12/28 07:11:10;;;;;;;;;;;8.70;99.90;;;;;;5022382;28;19932;-81
2022/12/28 07:13:36;;;;;;;;;;;8.70;99.90;;;;;;5033083;28;19967;-82
2022/12/28 07:16:06;;;;;;;;;;;8.70;99.90;;;;;;5033822;28;20385;-82
2022/12/28 07:18:32;;;;;;;;;;;8.80;99.90;;;;;;5033815;28;19954;-82
2022/12/28 07:20:59;;;;;;;;;;;8.80;99.90;;;;;;5035854;28;19905;-80
2022/12/28 07:23:28;;;;;;;;;;;8.80;99.90;;;;;;5052607;28;19905;-82
2022/12/28 07:25:54;;;;;;;;;;;8.80;99.90;;;;;;5033853;28;19932;-81
2022/12/28 07:28:20;;;;;;;;;;;8.80;99.90;;;;;;5032535;28;20031;-81
2022/12/28 07:30:45;;;;;;;;;;;8.80;99.90;;;;;;5048425;28;20366;-82
2022/12/28 07:33:11;;;;;;;;;;;8.80;99.90;;;;;;5033063;28;19909;-81
2022/12/28 07:35:36;;;;;;;;;;;8.80;99.90;;;;;;5048531;28;19912;-81
2022/12/28 07:38:02;;;;;;;;;;;8.80;99.90;;;;;;5047926;28;19971;-82
2022/12/28 07:40:27;;;;;;;;;;;8.80;99.90;;;;;;5033128;28;19913;-82
2022/12/28 07:42:53;;;;;;;;;;;8.80;99.90;;;;;;5031479;28;19909;-82
2022/12/28 07:45:18;;;;;;;;;;;8.90;99.90;;;;;;5048667;28;19964;-82
2022/12/28 07:47:44;;;;;;;;;;;8.90;99.90;;;;;;5033502;28;20617;-81
2022/12/28 07:50:09;;;;;;;;;;;8.90;99.90;;;;;;5032717;28;19909;-82
2022/12/28 07:52:36;;;;;;;;;;;8.90;99.90;;;;;;5048531;28;20277;-82
2022/12/28 07:55:01;;;;;;;;;;;8.90;99.90;;;;;;5048029;28;19905;-82
2022/12/28 07:57:27;;;;;;;;;;;8.90;99.90;;;;;;5031687;28;19920;-82
2022/12/28 07:59:52;;;;;;;;;;;9.00;99.90;;;;;;5032482;28;19913;-82
2022/12/28 08:02:18;;;;;;;;;;;9.00;99.90;;;;;;5048612;28;19909;-82
2022/12/28 08:04:43;;;;;;;;;;;9.00;99.90;;;;;;5031751;28;20391;-81
2022/12/28 08:07:09;;;;;;;;;;;9.00;99.90;;;;;;5030738;28;19917;-81
2022/12/28 08:09:34;;;;;;;;;;;9.00;99.90;;;;;;5033153;28;19916;-82
2022/12/28 08:12:01;;;;;;;;;;;9.00;99.90;;;;;;5048124;28;19909;-82
2022/12/28 08:14:28;;;;;;;;;;;9.10;99.90;;;;;;5032833;28;19909;-82
2022/12/28 08:16:53;;;;;;;;;;;9.10;99.90;;;;;;5031634;28;20011;-81
2022/12/28 08:19:19;;;;;;;;;;;9.00;99.90;;;;;;5031957;28;20360;-82
2022/12/28 08:21:44;;;;;;;;;;;9.00;99.90;;;;;;5031186;28;20281;-82
2022/12/28 08:24:14;;;;;;;;;;;9.00;99.90;;;;;;5033600;28;19909;-82
2022/12/28 08:26:40;;;;;;;;;;;9.00;99.90;;;;;;5031909;28;20011;-82
2022/12/28 08:29:07;;;;;;;;;;;9.10;99.90;;;;;;5048363;28;19932;-83
2022/12/28 08:31:34;;;;;;;;;;;9.00;99.90;;;;;;5031957;28;19912;-83
2022/12/28 08:34:01;;;;;;;;;;;9.00;99.90;;;;;;5033641;28;19905;-84
2022/12/28 08:36:27;;;;;;;;;;;9.00;99.90;;;;;;5033449;28;19905;-83
2022/12/28 08:38:52;;;;;;;;;;;9.00;99.90;;;;;;5032138;28;19920;-84
2022/12/28 08:41:19;;;;;;;;;;;9.10;99.90;;;;;;5032888;28;19905;-84
2022/12/28 08:43:45;;;;;;;;;;;9.10;99.90;;;;;;5052350;28;19952;-84
2022/12/28 08:46:40;;;;;;;;;;;9.10;99.90;;;;;;5053062;28;19928;-83
2022/12/28 08:49:06;;;;;;;;;;;9.10;99.90;;;;;;5027564;28;19991;-82
2022/12/28 08:51:36;;;;;;;;;;;9.10;99.90;;;;;;5034917;28;20020;-82
2022/12/28 08:54:01;;;;;;;;;;;9.20;99.90;;;;;;5035078;28;19959;-84
2022/12/28 08:56:29;;;;;;;;;;;9.10;99.90;;;;;;5036632;28;19905;-83
2022/12/28 08:58:55;;;;;;;;;;;9.20;99.90;;;;;;5016617;28;20090;-82
2022/12/28 09:01:22;;;;;;;;;;;9.20;99.90;;;;;;5018845;28;19917;-83
2022/12/28 09:03:48;;;;;;;;;;;9.20;99.90;;;;;;5033132;28;19905;-82
2022/12/28 09:06:15;;;;;;;;;;;9.20;99.90;;;;;;5033183;28;19916;-83
2022/12/28 09:08:41;;;;;;;;;;;9.30;99.90;;;;;;5035410;28;20068;-83
2022/12/28 09:11:08;;;;;;;;;;;9.20;99.90;;;;;;5033848;28;20020;-83
2022/12/28 09:13:33;;;;;;;;;;;9.20;99.90;;;;;;5033288;28;19912;-83
2022/12/28 09:16:06;;;;;;;;;;;9.30;99.90;;;;;;5035708;28;19909;-84
2022/12/28 09:18:32;;;;;;;;;;;9.20;99.90;;;;;;5035534;28;19909;-83
2022/12/28 09:21:27;;;;;;;;;;;9.30;99.90;;;;;;5051147;28;19932;-83
2022/12/28 09:23:53;;;;;;;;;;;9.20;99.90;;;;;;5030753;28;19905;-83
2022/12/28 09:26:19;;;;;;;;;;;9.20;99.90;;;;;;5051330;28;20269;-84
2022/12/28 09:28:46;;;;;;;;;;;9.20;99.90;;;;;;5034552;28;19905;-84
2022/12/28 09:31:12;;;;;;;;;;;9.20;99.90;;;;;;5034034;28;19928;-83
2022/12/28 09:36:22;;;;;;;;;;;9.20;99.90;;;;;;5036591;28;20432;-83
2022/12/28 09:38:48;;;;;;;;;;;9.20;99.90;;;;;;5033882;28;19995;-83
2022/12/28 09:41:32;;;;;;;;;;;9.20;99.90;;;;;;5033929;28;20349;-83
2022/12/28 09:44:10;;;;;;;;;;;9.20;99.90;;;;;;5034017;28;19905;-83
2022/12/28 09:46:36;;;;;;;;;;;9.30;99.90;;;;;;5035311;28;19917;-83
2022/12/28 09:49:03;;;;;;;;;;;9.20;99.90;;;;;;5035518;28;19905;-82
2022/12/28 09:51:32;;;;;;;;;;;9.20;99.90;;;;;;5031787;28;19909;-83
2022/12/28 09:53:58;;;;;;;;;;;9.30;99.90;;;;;;5047351;28;19905;-84
2022/12/28 09:56:36;;;;;;;;;;;9.30;99.90;;;;;;5032265;28;19936;-82
2022/12/28 09:59:04;;;;;;;;;;;9.30;99.90;;;;;;5032826;28;19913;-82
2022/12/28 10:01:29;;;;;;;;;;;9.30;99.90;;;;;;5034058;28;19905;-82
2022/12/28 10:03:56;;;;;;;;;;;9.30;99.90;;;;;;5033857;28;19939;-82
2022/12/28 10:06:26;;;;;;;;;;;9.30;99.90;;;;;;5033135;28;19905;-83
2022/12/28 10:08:53;;;;;;;;;;;9.30;99.90;;;;;;5034996;28;19905;-82
2022/12/28 10:11:21;;;;;;;;;;;9.30;99.90;;;;;;5033597;28;20379;-83
2022/12/28 10:13:48;;;;;;;;;;;9.30;99.90;;;;;;5033623;28;20012;-83
2022/12/28 10:16:17;;;;;;;;;;;9.30;99.90;;;;;;5049600;28;20354;-83
2022/12/28 10:18:43;;;;;;;;;;;9.30;99.90;;;;;;5033094;28;20352;-82
2022/12/28 10:21:09;;;;;;;;;;;9.30;99.90;;;;;;5031883;28;19944;-83
2022/12/28 10:23:35;;;;;;;;;;;9.30;99.90;;;;;;5032017;28;20416;-82
2022/12/28 10:26:02;;;;;;;;;;;9.30;99.90;;;;;;5032443;28;19931;-83
2022/12/28 10:28:32;;;;;;;;;;;9.40;99.90;;;;;;5032935;28;19905;-82
2022/12/28 10:31:03;;;;;;;;;;;9.30;99.90;;;;;;5033721;28;19913;-83
2022/12/28 10:33:28;;;;;;;;;;;9.30;99.90;;;;;;5034827;28;19905;-83
2022/12/28 10:35:54;;;;;;;;;;;9.30;99.90;;;;;;5033024;28;19916;-82
2022/12/28 10:38:22;;;;;;;;;;;9.30;99.90;;;;;;5034071;28;19909;-82
2022/12/28 10:40:54;;;;;;;;;;;9.30;99.90;;;;;;5032684;28;19912;-82
2022/12/28 10:43:20;;;;;;;;;;;9.40;99.90;;;;;;5049901;28;19912;-82
2022/12/28 10:45:47;;;;;;;;;;;9.40;99.90;;;;;;5032137;28;19905;-83
2022/12/28 10:48:14;;;;;;;;;;;9.40;99.90;;;;;;5033775;28;20381;-82
2022/12/28 10:50:45;;;;;;;;;;;9.40;99.90;;;;;;5035230;28;19905;-81
2022/12/28 10:53:37;;;;;;;;;;;9.40;99.90;;;;;;5050397;28;19966;-81
2022/12/28 10:56:05;;;;;;;;;;;9.50;99.90;;;;;;5030751;28;19905;-82
2022/12/28 10:58:32;;;;;;;;;;;9.50;99.90;;;;;;5033867;28;20369;-83
2022/12/28 11:00:59;;;;;;;;;;;9.50;99.90;;;;;;5034334;28;19948;-83
2022/12/28 11:03:34;;;;;;;;;;;9.50;99.90;;;;;;5033989;28;19904;-84
2022/12/28 11:06:07;;;;;;;;;;;9.50;99.90;;;;;;5032028;28;20372;-83
2022/12/28 11:08:32;;;;;;;;;;;9.50;99.90;;;;;;5032363;28;20361;-84
2022/12/28 11:10:58;;;;;;;;;;;9.50;99.90;;;;;;5033204;28;19909;-83
2022/12/28 11:13:26;;;;;;;;;;;9.50;99.90;;;;;;5032736;28;19913;-84
2022/12/28 11:15:51;;;;;;;;;;;9.50;99.90;;;;;;5049973;28;19909;-83
2022/12/28 11:18:17;;;;;;;;;;;9.50;99.90;;;;;;5033116;28;19916;-83
2022/12/28 11:20:44;;;;;;;;;;;9.50;99.90;;;;;;5032401;28;20333;-82
2022/12/28 11:23:15;;;;;;;;;;;9.50;99.90;;;;;;5031980;28;19956;-83
2022/12/28 11:25:41;;;;;;;;;;;9.50;99.90;;;;;;5031028;28;19909;-83
2022/12/28 11:28:20;;;;;;;;;;;9.50;99.90;;;;;;5031341;28;19967;-83
2022/12/28 11:30:46;;;;;;;;;;;9.50;99.90;;;;;;5032911;28;19941;-83
2022/12/28 11:33:41;;;;;;;;;;;9.60;99.90;;;;;;5031940;28;19913;-83
2022/12/28 11:36:13;;;;;;;;;;;9.50;99.90;;;;;;5020393;28;19916;-84
2022/12/28 11:38:43;;;;;;;;;;;9.50;99.90;;;;;;5033547;28;19913;-81
2022/12/28 11:41:32;;;;;;;;;;;9.50;99.90;;;;;;5032171;28;19909;-81
2022/12/28 11:44:00;;;;;;;;;;;9.50;99.90;;;;;;5031770;28;20019;-81
2022/12/28 11:46:25;;;;;;;;;;;9.50;99.90;;;;;;5033552;28;19921;-81
2022/12/28 11:48:54;;;;;;;;;;;9.60;99.90;;;;;;5022375;28;19924;-82
2022/12/28 11:51:19;;;;;;;;;;;9.60;99.90;;;;;;5016461;28;19905;-81
2022/12/28 11:53:44;;;;;;;;;;;9.60;99.90;;;;;;5032901;28;19916;-81
2022/12/28 11:56:17;;;;;;;;;;;9.50;99.90;;;;;;5031437;28;19992;-81
2022/12/28 11:58:43;;;;;;;;;;;9.60;99.90;;;;;;5032903;28;19917;-81
2022/12/28 12:01:28;;;;;;;;;;;9.60;99.90;;;;;;5031689;28;19917;-80
2022/12/28 12:03:56;;;;;;;;;;;9.60;99.90;;;;;;5030743;28;20354;-81
2022/12/28 12:06:40;;;;;;;;;;;9.60;99.90;;;;;;5027150;28;19909;-81
2022/12/28 12:09:24;;;;;;;;;;;9.60;99.90;;;;;;5031206;28;19909;-81
2022/12/28 12:11:50;;;;;;;;;;;9.50;99.90;;;;;;5022570;28;19906;-81
2022/12/28 12:14:20;;;;;;;;;;;9.50;99.90;;;;;;5046186;28;19913;-81
2022/12/28 12:16:48;;;;;;;;;;;9.50;99.90;;;;;;5022696;28;19927;-81
2022/12/28 12:19:25;;;;;;;;;;;9.50;99.90;;;;;;5040912;28;19952;-81
2022/12/28 12:22:00;;;;;;;;;;;9.50;99.90;;;;;;5020240;28;20013;-81
2022/12/28 12:24:29;;;;;;;;;;;9.50;99.90;;;;;;5036189;28;20372;-82
2022/12/28 12:26:58;;;;;;;;;;;9.50;99.90;;;;;;5035006;28;19915;-81
2022/12/28 12:29:28;;;;;;;;;;;9.40;99.90;;;;;;5035895;28;20412;-81
2022/12/28 12:32:00;;;;;;;;;;;9.40;99.90;;;;;;5034562;28;20349;-80
2022/12/28 12:34:46;;;;;;;;;;;9.40;99.90;;;;;;5036071;28;19909;-80
2022/12/28 12:37:17;;;;;;;;;;;9.30;99.90;;;;;;5030293;28;19971;-81
2022/12/28 12:39:46;;;;;;;;;;;9.30;99.90;;;;;;5027719;28;19996;-81
2022/12/28 12:42:38;;;;;;;;;;;9.30;99.90;;;;;;5028033;28;19913;-81
2022/12/28 12:45:12;;;;;;;;;;;9.30;99.90;;;;;;5036336;28;19905;-81
2022/12/28 12:47:43;;;;;;;;;;;9.30;99.90;;;;;;5025467;28;19924;-82
2022/12/28 12:50:17;;;;;;;;;;;9.30;99.90;;;;;;5027349;28;20412;-81
2022/12/28 12:52:55;;;;;;;;;;;9.30;99.90;;;;;;5028062;28;20019;-82
2022/12/28 12:55:44;;;;;;;;;;;9.30;99.90;;;;;;5029074;28;19912;-82
2022/12/28 12:58:30;;;;;;;;;;;9.30;99.90;;;;;;5024748;28;19956;-82
2022/12/28 13:01:14;;;;;;;;;;;9.30;99.90;;;;;;5031035;28;19916;-82
2022/12/28 13:03:44;;;;;;;;;;;9.30;99.90;;;;;;5025197;28;19932;-82
2022/12/28 13:06:21;;;;;;;;;;;9.30;99.90;;;;;;5034046;28;20011;-82
2022/12/28 13:08:48;;;;;;;;;;;9.30;99.90;;;;;;5028060;28;19972;-82
2022/12/28 13:11:15;;;;;;;;;;;9.30;99.90;;;;;;5025124;28;20379;-82
2022/12/28 13:13:42;;;;;;;;;;;9.30;99.90;;;;;;5028509;28;19920;-81
2022/12/28 13:16:15;;;;;;;;;;;9.30;99.90;;;;;;5030335;28;20345;-80
2022/12/28 13:18:51;;;;;;;;;;;9.40;99.90;;;;;;5024637;28;19913;-81
2022/12/28 13:21:19;;;;;;;;;;;9.30;99.90;;;;;;5021968;28;19905;-82
2022/12/28 13:23:44;;;;;;;;;;;9.40;99.90;;;;;;5029013;28;19916;-82
2022/12/28 13:26:11;;;;;;;;;;;9.40;99.90;;;;;;5030521;28;19909;-81
2022/12/28 13:28:43;;;;;;;;;;;9.40;99.90;;;;;;5047157;28;19913;-81
2022/12/28 13:31:20;;;;;;;;;;;9.40;99.90;;;;;;5032794;28;19905;-82
2022/12/28 13:33:55;;;;;;;;;;;9.40;99.90;;;;;;5030584;28;20352;-82
2022/12/28 13:36:20;;;;;;;;;;;9.40;99.90;;;;;;5023812;28;20372;-81
2022/12/28 13:38:46;;;;;;;;;;;9.40;99.90;;;;;;5029486;28;19921;-82
2022/12/28 13:41:20;;;;;;;;;;;9.40;99.90;;;;;;5023293;28;19917;-81
2022/12/28 13:43:56;;;;;;;;;;;9.50;99.90;;;;;;5023180;28;19960;-81
2022/12/28 13:46:23;;;;;;;;;;;9.50;99.90;;;;;;5023280;28;19959;-82
2022/12/28 13:48:50;;;;;;;;;;;9.50;99.90;;;;;;5034416;28;20354;-82
2022/12/28 13:51:17;;;;;;;;;;;9.50;99.90;;;;;;5023919;28;19915;-82
2022/12/28 13:53:45;;;;;;;;;;;9.50;99.90;;;;;;5033806;28;19905;-82
2022/12/28 13:56:12;;;;;;;;;;;9.50;99.90;;;;;;5031899;28;19909;-82
2022/12/28 13:58:47;;;;;;;;;;;9.50;99.90;;;;;;5032828;28;19913;-81
2022/12/28 14:01:14;;;;;;;;;;;9.50;99.90;;;;;;5029439;28;19976;-81
2022/12/28 14:03:41;;;;;;;;;;;9.60;99.90;;;;;;5015034;28;19959;-82
2022/12/28 14:06:06;;;;;;;;;;;9.50;99.90;;;;;;4996073;28;19909;-81
2022/12/28 14:08:33;;;;;;;;;;;9.60;99.90;;;;;;5014840;28;19905;-82
2022/12/28 14:10:59;;;;;;;;;;;9.60;99.90;;;;;;5015385;28;19905;-82
2022/12/28 14:13:25;;;;;;;;;;;9.60;99.90;;;;;;5014300;28;19916;-82
2022/12/28 14:15:50;;;;;;;;;;;9.60;99.90;;;;;;4996249;28;19913;-81
2022/12/28 14:18:17;;;;;;;;;;;9.60;99.90;;;;;;5013387;28;19913;-81
2022/12/28 14:20:46;;;;;;;;;;;9.60;99.90;;;;;;5014062;28;19915;-82
2022/12/28 14:23:20;;;;;;;;;;;9.60;99.90;;;;;;5016485;28;19909;-82
2022/12/28 14:25:45;;;;;;;;;;;9.70;99.90;;;;;;5013714;28;19910;-82
2022/12/28 14:28:22;;;;;;;;;;;9.70;99.90;;;;;;5013680;28;19955;-81
2022/12/28 14:30:52;;;;;;;;;;;9.60;99.90;;;;;;5014366;28;20346;-81
2022/12/28 14:33:19;;;;;;;;;;;9.70;99.90;;;;;;5015186;28;19906;-81
2022/12/28 14:35:47;;;;;;;;;;;9.70;99.90;;;;;;5013548;28;20333;-82
2022/12/28 14:38:18;;;;;;;;;;;9.70;99.90;;;;;;5014020;28;19959;-83
2022/12/28 14:40:49;;;;;;;;;;;9.70;99.90;;;;;;5020496;28;19975;-82
2022/12/28 14:43:21;;;;;;;;;;;9.70;99.90;;;;;;5049206;28;20381;-81
2022/12/28 14:45:47;;;;;;;;;;;9.80;99.90;;;;;;5032138;28;19956;-82
2022/12/28 14:48:39;;;;;;;;;;;9.80;99.90;;;;;;5031700;28;20381;-82
2022/12/28 14:51:21;;;;;;;;;;;9.80;99.90;;;;;;5030776;28;20349;-82
2022/12/28 14:54:06;;;;;;;;;;;9.80;99.90;;;;;;5033607;28;19916;-82
2022/12/28 14:56:33;;;;;;;;;;;9.80;99.90;;;;;;5033360;28;19913;-82
2022/12/28 14:58:59;;;;;;;;;;;9.80;99.90;;;;;;5032558;28;19960;-82
2022/12/28 15:01:38;;;;;;;;;;;9.80;99.90;;;;;;5049794;28;19913;-82
2022/12/28 15:04:04;;;;;;;;;;;9.90;99.90;;;;;;5032249;28;19939;-80
2022/12/28 15:06:30;;;;;;;;;;;9.90;99.90;;;;;;5032472;28;19936;-82
2022/12/28 15:09:00;;;;;;;;;;;9.90;99.90;;;;;;5047331;28;19912;-82